sensor_id;sensor_type;location;lat;lon;timestamp;P1;durP1;ratioP1;P2;durP2;ratioP2
75156;SDS011;63736;50.076;8.198;2022-12-15T00:00:41;13.30;;;5.80;;
75156;SDS011;63736;50.076;8.198;2022-12-15T00:03:25;10.55;;;4.28;;
75156;SDS011;63736;50.076;8.198;2022-12-15T00:06:09;13.07;;;5.45;;
75156;SDS011;63736;50.076;8.198;2022-12-15T00:08:53;12.90;;;4.32;;
75156;SDS011;63736;50.076;8.198;2022-12-15T00:11:37;17.65;;;6.40;;
75156;SDS011;63736;50.076;8.198;2022-12-15T00:14:20;13.60;;;5.17;;
75156;SDS011;63736;50.076;8.198;2022-12-15T00:17:04;14.23;;;5.93;;
75156;SDS011;63736;50.076;8.198;2022-12-15T00:19:48;11.07;;;4.30;;
75156;SDS011;63736;50.076;8.198;2022-12-15T00:22:32;14.32;;;5.22;;
75156;SDS011;63736;50.076;8.198;2022-12-15T00:25:16;12.15;;;4.45;;
75156;SDS011;63736;50.076;8.198;2022-12-15T00:28:00;15.13;;;5.63;;
75156;SDS011;63736;50.076;8.198;2022-12-15T00:30:44;12.02;;;4.32;;
75156;SDS011;63736;50.076;8.198;2022-12-15T00:33:27;11.80;;;5.45;;
75156;SDS011;63736;50.076;8.198;2022-12-15T00:36:11;13.90;;;5.20;;
75156;SDS011;63736;50.076;8.198;2022-12-15T00:38:55;16.35;;;6.57;;
75156;SDS011;63736;50.076;8.198;2022-12-15T00:41:20;16.63;;;6.83;;
75156;SDS011;63736;50.076;8.198;2022-12-15T00:43:46;20.17;;;7.90;;
75156;SDS011;63736;50.076;8.198;2022-12-15T00:46:11;16.13;;;7.03;;
75156;SDS011;63736;50.076;8.198;2022-12-15T00:48:56;17.42;;;7.13;;
75156;SDS011;63736;50.076;8.198;2022-12-15T00:51:22;17.83;;;6.47;;
75156;SDS011;63736;50.076;8.198;2022-12-15T00:54:06;15.63;;;10.65;;
75156;SDS011;63736;50.076;8.198;2022-12-15T00:56:50;15.40;;;6.15;;
75156;SDS011;63736;50.076;8.198;2022-12-15T00:59:33;16.60;;;12.45;;
75156;SDS011;63736;50.076;8.198;2022-12-15T01:02:17;23.30;;;20.63;;
75156;SDS011;63736;50.076;8.198;2022-12-15T01:05:01;36.20;;;24.02;;
75156;SDS011;63736;50.076;8.198;2022-12-15T01:07:45;18.67;;;10.95;;
75156;SDS011;63736;50.076;8.198;2022-12-15T01:10:29;19.25;;;11.80;;
75156;SDS011;63736;50.076;8.198;2022-12-15T01:13:13;19.88;;;12.57;;
75156;SDS011;63736;50.076;8.198;2022-12-15T01:15:57;16.37;;;11.43;;
75156;SDS011;63736;50.076;8.198;2022-12-15T01:18:40;19.20;;;14.85;;
75156;SDS011;63736;50.076;8.198;2022-12-15T01:21:24;27.42;;;22.52;;
75156;SDS011;63736;50.076;8.198;2022-12-15T01:23:50;30.37;;;24.77;;
75156;SDS011;63736;50.076;8.198;2022-12-15T01:26:16;27.58;;;20.40;;
75156;SDS011;63736;50.076;8.198;2022-12-15T01:28:41;29.57;;;23.03;;
75156;SDS011;63736;50.076;8.198;2022-12-15T01:31:10;33.23;;;25.83;;
75156;SDS011;63736;50.076;8.198;2022-12-15T01:33:36;36.53;;;27.52;;
75156;SDS011;63736;50.076;8.198;2022-12-15T01:36:02;38.75;;;29.17;;
75156;SDS011;63736;50.076;8.198;2022-12-15T01:38:28;41.00;;;29.73;;
75156;SDS011;63736;50.076;8.198;2022-12-15T01:41:04;43.92;;;31.33;;
75156;SDS011;63736;50.076;8.198;2022-12-15T01:43:32;55.92;;;36.08;;
75156;SDS011;63736;50.076;8.198;2022-12-15T01:46:04;51.33;;;35.33;;
75156;SDS011;63736;50.076;8.198;2022-12-15T01:48:51;42.53;;;30.67;;
75156;SDS011;63736;50.076;8.198;2022-12-15T01:51:26;42.45;;;30.95;;
75156;SDS011;63736;50.076;8.198;2022-12-15T01:54:00;46.35;;;33.08;;
75156;SDS011;63736;50.076;8.198;2022-12-15T01:56:30;58.10;;;36.60;;
75156;SDS011;63736;50.076;8.198;2022-12-15T01:59:01;58.90;;;37.43;;
75156;SDS011;63736;50.076;8.198;2022-12-15T02:01:27;66.45;;;39.33;;
75156;SDS011;63736;50.076;8.198;2022-12-15T02:03:53;69.53;;;41.10;;
75156;SDS011;63736;50.076;8.198;2022-12-15T02:06:19;70.28;;;40.60;;
75156;SDS011;63736;50.076;8.198;2022-12-15T02:08:47;81.77;;;44.13;;
75156;SDS011;63736;50.076;8.198;2022-12-15T02:11:26;62.13;;;37.05;;
75156;SDS011;63736;50.076;8.198;2022-12-15T02:14:15;43.13;;;30.55;;
75156;SDS011;63736;50.076;8.198;2022-12-15T02:17:15;30.23;;;21.33;;
75156;SDS011;63736;50.076;8.198;2022-12-15T02:20:13;33.25;;;26.90;;
75156;SDS011;63736;50.076;8.198;2022-12-15T02:25:46;45.35;;;32.00;;
75156;SDS011;63736;50.076;8.198;2022-12-15T02:28:55;55.05;;;35.70;;
75156;SDS011;63736;50.076;8.198;2022-12-15T02:34:19;59.70;;;36.78;;
75156;SDS011;63736;50.076;8.198;2022-12-15T02:36:53;67.63;;;40.13;;
75156;SDS011;63736;50.076;8.198;2022-12-15T02:39:23;72.65;;;40.45;;
75156;SDS011;63736;50.076;8.198;2022-12-15T02:41:49;83.53;;;44.67;;
75156;SDS011;63736;50.076;8.198;2022-12-15T02:44:18;99.97;;;49.45;;
75156;SDS011;63736;50.076;8.198;2022-12-15T02:57:54;73.00;;;40.92;;
75156;SDS011;63736;50.076;8.198;2022-12-15T03:00:23;77.75;;;42.63;;
75156;SDS011;63736;50.076;8.198;2022-12-15T03:02:52;53.80;;;34.43;;
75156;SDS011;63736;50.076;8.198;2022-12-15T03:05:19;48.22;;;31.95;;
75156;SDS011;63736;50.076;8.198;2022-12-15T03:07:48;46.17;;;31.70;;
75156;SDS011;63736;50.076;8.198;2022-12-15T03:10:14;56.60;;;35.35;;
75156;SDS011;63736;50.076;8.198;2022-12-15T03:12:40;37.80;;;27.00;;
75156;SDS011;63736;50.076;8.198;2022-12-15T03:15:05;44.67;;;31.13;;
75156;SDS011;63736;50.076;8.198;2022-12-15T03:17:31;21.93;;;12.23;;
75156;SDS011;63736;50.076;8.198;2022-12-15T03:19:56;11.97;;;4.30;;
75156;SDS011;63736;50.076;8.198;2022-12-15T03:22:21;13.00;;;5.40;;
75156;SDS011;63736;50.076;8.198;2022-12-15T03:24:47;16.17;;;6.47;;
75156;SDS011;63736;50.076;8.198;2022-12-15T03:27:12;11.90;;;5.23;;
75156;SDS011;63736;50.076;8.198;2022-12-15T03:29:38;12.80;;;5.17;;
75156;SDS011;63736;50.076;8.198;2022-12-15T03:32:03;18.03;;;7.03;;
75156;SDS011;63736;50.076;8.198;2022-12-15T03:34:29;18.90;;;6.87;;
75156;SDS011;63736;50.076;8.198;2022-12-15T03:36:54;12.90;;;5.33;;
75156;SDS011;63736;50.076;8.198;2022-12-15T03:39:19;12.03;;;4.83;;
75156;SDS011;63736;50.076;8.198;2022-12-15T03:41:45;9.10;;;3.53;;
75156;SDS011;63736;50.076;8.198;2022-12-15T03:44:10;9.53;;;3.33;;
75156;SDS011;63736;50.076;8.198;2022-12-15T03:46:35;9.77;;;3.87;;
75156;SDS011;63736;50.076;8.198;2022-12-15T03:49:01;16.27;;;6.05;;
75156;SDS011;63736;50.076;8.198;2022-12-15T03:51:26;8.97;;;3.77;;
75156;SDS011;63736;50.076;8.198;2022-12-15T03:53:51;14.70;;;4.90;;
75156;SDS011;63736;50.076;8.198;2022-12-15T03:56:17;15.70;;;5.32;;
75156;SDS011;63736;50.076;8.198;2022-12-15T03:58:43;15.10;;;4.77;;
75156;SDS011;63736;50.076;8.198;2022-12-15T04:01:21;12.00;;;4.37;;
75156;SDS011;63736;50.076;8.198;2022-12-15T04:03:51;17.70;;;5.63;;
75156;SDS011;63736;50.076;8.198;2022-12-15T04:06:16;11.47;;;4.30;;
75156;SDS011;63736;50.076;8.198;2022-12-15T04:08:42;12.17;;;4.07;;
75156;SDS011;63736;50.076;8.198;2022-12-15T04:11:07;9.73;;;3.37;;
75156;SDS011;63736;50.076;8.198;2022-12-15T04:13:32;15.77;;;6.33;;
75156;SDS011;63736;50.076;8.198;2022-12-15T04:15:59;11.73;;;4.97;;
75156;SDS011;63736;50.076;8.198;2022-12-15T04:18:25;19.35;;;7.57;;
75156;SDS011;63736;50.076;8.198;2022-12-15T04:20:51;17.93;;;7.83;;
75156;SDS011;63736;50.076;8.198;2022-12-15T04:23:16;45.50;;;18.60;;
75156;SDS011;63736;50.076;8.198;2022-12-15T04:25:41;19.00;;;8.20;;
75156;SDS011;63736;50.076;8.198;2022-12-15T04:28:25;12.70;;;4.65;;
75156;SDS011;63736;50.076;8.198;2022-12-15T04:31:10;14.75;;;5.38;;
75156;SDS011;63736;50.076;8.198;2022-12-15T04:34:03;12.88;;;5.25;;
75156;SDS011;63736;50.076;8.198;2022-12-15T04:36:50;9.05;;;3.40;;
75156;SDS011;63736;50.076;8.198;2022-12-15T04:39:36;13.33;;;4.43;;
75156;SDS011;63736;50.076;8.198;2022-12-15T04:42:22;8.85;;;3.20;;
75156;SDS011;63736;50.076;8.198;2022-12-15T04:45:06;10.90;;;3.90;;
75156;SDS011;63736;50.076;8.198;2022-12-15T04:47:51;7.82;;;3.10;;
75156;SDS011;63736;50.076;8.198;2022-12-15T04:50:35;7.93;;;3.47;;
75156;SDS011;63736;50.076;8.198;2022-12-15T04:53:19;9.17;;;2.70;;
75156;SDS011;63736;50.076;8.198;2022-12-15T04:56:03;9.73;;;3.00;;
75156;SDS011;63736;50.076;8.198;2022-12-15T04:58:53;11.18;;;3.92;;
75156;SDS011;63736;50.076;8.198;2022-12-15T05:01:36;12.65;;;4.20;;
75156;SDS011;63736;50.076;8.198;2022-12-15T05:04:20;14.93;;;4.72;;
75156;SDS011;63736;50.076;8.198;2022-12-15T05:07:04;9.10;;;3.07;;
75156;SDS011;63736;50.076;8.198;2022-12-15T05:09:48;8.23;;;2.70;;
75156;SDS011;63736;50.076;8.198;2022-12-15T05:12:32;11.50;;;4.18;;
75156;SDS011;63736;50.076;8.198;2022-12-15T05:15:16;9.02;;;3.30;;
75156;SDS011;63736;50.076;8.198;2022-12-15T05:18:00;9.30;;;3.33;;
75156;SDS011;63736;50.076;8.198;2022-12-15T05:20:44;9.23;;;3.20;;
75156;SDS011;63736;50.076;8.198;2022-12-15T05:23:27;9.10;;;3.28;;
75156;SDS011;63736;50.076;8.198;2022-12-15T05:26:12;9.10;;;3.10;;
75156;SDS011;63736;50.076;8.198;2022-12-15T05:28:56;8.10;;;3.15;;
75156;SDS011;63736;50.076;8.198;2022-12-15T05:31:40;7.07;;;3.13;;
75156;SDS011;63736;50.076;8.198;2022-12-15T05:34:26;9.67;;;3.80;;
75156;SDS011;63736;50.076;8.198;2022-12-15T05:36:54;9.00;;;2.97;;
75156;SDS011;63736;50.076;8.198;2022-12-15T05:39:21;12.20;;;3.67;;
75156;SDS011;63736;50.076;8.198;2022-12-15T05:41:47;13.60;;;5.70;;
75156;SDS011;63736;50.076;8.198;2022-12-15T05:44:12;14.40;;;4.90;;
75156;SDS011;63736;50.076;8.198;2022-12-15T05:46:38;11.73;;;4.03;;
75156;SDS011;63736;50.076;8.198;2022-12-15T05:49:04;13.88;;;4.93;;
75156;SDS011;63736;50.076;8.198;2022-12-15T05:51:31;13.93;;;4.37;;
75156;SDS011;63736;50.076;8.198;2022-12-15T05:53:56;11.65;;;4.00;;
75156;SDS011;63736;50.076;8.198;2022-12-15T05:56:22;11.80;;;3.53;;
75156;SDS011;63736;50.076;8.198;2022-12-15T05:58:48;10.60;;;3.80;;
75156;SDS011;63736;50.076;8.198;2022-12-15T06:01:15;13.40;;;4.70;;
75156;SDS011;63736;50.076;8.198;2022-12-15T06:03:42;9.98;;;3.70;;
75156;SDS011;63736;50.076;8.198;2022-12-15T06:06:08;11.20;;;3.80;;
75156;SDS011;63736;50.076;8.198;2022-12-15T06:08:35;15.00;;;5.60;;
75156;SDS011;63736;50.076;8.198;2022-12-15T06:11:02;8.23;;;3.13;;
75156;SDS011;63736;50.076;8.198;2022-12-15T06:13:28;11.98;;;5.18;;
75156;SDS011;63736;50.076;8.198;2022-12-15T06:16:05;12.20;;;5.10;;
75156;SDS011;63736;50.076;8.198;2022-12-15T06:18:34;11.43;;;3.70;;
75156;SDS011;63736;50.076;8.198;2022-12-15T06:21:04;7.82;;;2.67;;
75156;SDS011;63736;50.076;8.198;2022-12-15T06:23:32;8.77;;;3.72;;
75156;SDS011;63736;50.076;8.198;2022-12-15T06:25:58;12.63;;;4.72;;
75156;SDS011;63736;50.076;8.198;2022-12-15T06:28:23;10.27;;;3.90;;
75156;SDS011;63736;50.076;8.198;2022-12-15T06:30:50;10.27;;;3.77;;
75156;SDS011;63736;50.076;8.198;2022-12-15T06:33:19;12.55;;;5.25;;
75156;SDS011;63736;50.076;8.198;2022-12-15T06:35:46;13.70;;;5.15;;
75156;SDS011;63736;50.076;8.198;2022-12-15T06:38:12;9.80;;;3.17;;
75156;SDS011;63736;50.076;8.198;2022-12-15T06:40:38;16.13;;;5.83;;
75156;SDS011;63736;50.076;8.198;2022-12-15T06:43:04;13.48;;;5.32;;
75156;SDS011;63736;50.076;8.198;2022-12-15T06:45:30;12.07;;;4.72;;
75156;SDS011;63736;50.076;8.198;2022-12-15T06:47:55;12.03;;;4.97;;
75156;SDS011;63736;50.076;8.198;2022-12-15T06:50:21;13.30;;;4.63;;
75156;SDS011;63736;50.076;8.198;2022-12-15T06:52:46;10.67;;;3.07;;
75156;SDS011;63736;50.076;8.198;2022-12-15T06:55:11;7.33;;;2.77;;
75156;SDS011;63736;50.076;8.198;2022-12-15T06:57:38;10.32;;;4.45;;
75156;SDS011;63736;50.076;8.198;2022-12-15T07:00:04;9.07;;;3.25;;
75156;SDS011;63736;50.076;8.198;2022-12-15T07:02:30;7.22;;;2.35;;
75156;SDS011;63736;50.076;8.198;2022-12-15T07:04:56;7.73;;;3.03;;
75156;SDS011;63736;50.076;8.198;2022-12-15T07:07:22;13.63;;;4.80;;
75156;SDS011;63736;50.076;8.198;2022-12-15T07:09:47;12.07;;;5.00;;
75156;SDS011;63736;50.076;8.198;2022-12-15T07:12:12;14.23;;;4.47;;
75156;SDS011;63736;50.076;8.198;2022-12-15T07:14:38;10.23;;;4.23;;
75156;SDS011;63736;50.076;8.198;2022-12-15T07:17:03;11.50;;;3.90;;
75156;SDS011;63736;50.076;8.198;2022-12-15T07:19:28;10.70;;;4.25;;
75156;SDS011;63736;50.076;8.198;2022-12-15T07:21:54;9.00;;;3.23;;
75156;SDS011;63736;50.076;8.198;2022-12-15T07:24:21;22.43;;;8.73;;
75156;SDS011;63736;50.076;8.198;2022-12-15T07:26:47;24.55;;;9.32;;
75156;SDS011;63736;50.076;8.198;2022-12-15T07:29:12;26.47;;;9.67;;
75156;SDS011;63736;50.076;8.198;2022-12-15T07:31:37;26.70;;;10.07;;
75156;SDS011;63736;50.076;8.198;2022-12-15T07:34:03;24.13;;;9.60;;
75156;SDS011;63736;50.076;8.198;2022-12-15T07:36:28;22.97;;;8.73;;
75156;SDS011;63736;50.076;8.198;2022-12-15T07:38:56;26.33;;;9.40;;
75156;SDS011;63736;50.076;8.198;2022-12-15T07:41:24;19.17;;;7.90;;
75156;SDS011;63736;50.076;8.198;2022-12-15T07:43:50;22.45;;;8.63;;
75156;SDS011;63736;50.076;8.198;2022-12-15T07:46:16;18.73;;;8.13;;
75156;SDS011;63736;50.076;8.198;2022-12-15T07:48:41;24.65;;;7.72;;
75156;SDS011;63736;50.076;8.198;2022-12-15T07:51:07;16.00;;;6.57;;
75156;SDS011;63736;50.076;8.198;2022-12-15T07:53:33;59.70;;;18.52;;
75156;SDS011;63736;50.076;8.198;2022-12-15T07:55:59;22.20;;;8.27;;
75156;SDS011;63736;50.076;8.198;2022-12-15T07:58:25;18.87;;;7.63;;
75156;SDS011;63736;50.076;8.198;2022-12-15T08:00:52;20.13;;;7.50;;
75156;SDS011;63736;50.076;8.198;2022-12-15T08:03:22;14.25;;;5.72;;
75156;SDS011;63736;50.076;8.198;2022-12-15T08:05:48;17.13;;;5.82;;
75156;SDS011;63736;50.076;8.198;2022-12-15T08:08:13;13.40;;;4.43;;
75156;SDS011;63736;50.076;8.198;2022-12-15T08:10:39;10.60;;;3.70;;
75156;SDS011;63736;50.076;8.198;2022-12-15T08:13:05;9.13;;;3.40;;
75156;SDS011;63736;50.076;8.198;2022-12-15T08:15:30;18.17;;;6.97;;
75156;SDS011;63736;50.076;8.198;2022-12-15T08:17:58;11.55;;;4.32;;
75156;SDS011;63736;50.076;8.198;2022-12-15T08:20:24;12.60;;;4.93;;
75156;SDS011;63736;50.076;8.198;2022-12-15T08:22:50;19.48;;;7.78;;
75156;SDS011;63736;50.076;8.198;2022-12-15T08:25:15;15.93;;;6.10;;
75156;SDS011;63736;50.076;8.198;2022-12-15T08:27:41;15.27;;;6.33;;
75156;SDS011;63736;50.076;8.198;2022-12-15T08:30:06;16.60;;;7.00;;
75156;SDS011;63736;50.076;8.198;2022-12-15T08:32:32;11.50;;;4.87;;
75156;SDS011;63736;50.076;8.198;2022-12-15T08:34:57;15.10;;;5.57;;
75156;SDS011;63736;50.076;8.198;2022-12-15T08:37:22;15.20;;;6.17;;
75156;SDS011;63736;50.076;8.198;2022-12-15T08:39:48;12.20;;;5.17;;
75156;SDS011;63736;50.076;8.198;2022-12-15T08:42:13;12.93;;;5.27;;
75156;SDS011;63736;50.076;8.198;2022-12-15T08:44:38;12.73;;;5.07;;
75156;SDS011;63736;50.076;8.198;2022-12-15T08:47:04;15.07;;;6.03;;
75156;SDS011;63736;50.076;8.198;2022-12-15T08:49:29;12.50;;;4.80;;
75156;SDS011;63736;50.076;8.198;2022-12-15T08:51:54;15.30;;;6.13;;
75156;SDS011;63736;50.076;8.198;2022-12-15T08:54:20;14.63;;;6.50;;
75156;SDS011;63736;50.076;8.198;2022-12-15T08:56:45;17.33;;;6.07;;
75156;SDS011;63736;50.076;8.198;2022-12-15T08:59:10;26.57;;;16.47;;
75156;SDS011;63736;50.076;8.198;2022-12-15T09:01:36;25.27;;;15.50;;
75156;SDS011;63736;50.076;8.198;2022-12-15T09:04:04;18.42;;;8.82;;
75156;SDS011;63736;50.076;8.198;2022-12-15T09:06:32;19.67;;;8.88;;
75156;SDS011;63736;50.076;8.198;2022-12-15T09:08:59;15.53;;;5.43;;
75156;SDS011;63736;50.076;8.198;2022-12-15T09:11:27;17.75;;;6.90;;
75156;SDS011;63736;50.076;8.198;2022-12-15T09:13:53;17.85;;;7.35;;
75156;SDS011;63736;50.076;8.198;2022-12-15T09:16:19;15.93;;;6.83;;
75156;SDS011;63736;50.076;8.198;2022-12-15T09:18:46;19.45;;;8.15;;
75156;SDS011;63736;50.076;8.198;2022-12-15T09:21:13;15.27;;;7.45;;
75156;SDS011;63736;50.076;8.198;2022-12-15T09:23:39;16.52;;;7.50;;
75156;SDS011;63736;50.076;8.198;2022-12-15T09:26:06;21.97;;;8.80;;
75156;SDS011;63736;50.076;8.198;2022-12-15T09:28:33;21.65;;;9.27;;
75156;SDS011;63736;50.076;8.198;2022-12-15T09:31:03;23.75;;;10.65;;
75156;SDS011;63736;50.076;8.198;2022-12-15T09:33:30;25.42;;;9.93;;
75156;SDS011;63736;50.076;8.198;2022-12-15T09:35:55;23.47;;;10.23;;
75156;SDS011;63736;50.076;8.198;2022-12-15T09:38:20;24.17;;;9.50;;
75156;SDS011;63736;50.076;8.198;2022-12-15T09:40:46;27.87;;;11.03;;
75156;SDS011;63736;50.076;8.198;2022-12-15T09:43:20;20.10;;;8.13;;
75156;SDS011;63736;50.076;8.198;2022-12-15T09:45:52;23.55;;;9.80;;
75156;SDS011;63736;50.076;8.198;2022-12-15T09:48:39;23.67;;;9.55;;
75156;SDS011;63736;50.076;8.198;2022-12-15T09:51:07;24.33;;;9.37;;
75156;SDS011;63736;50.076;8.198;2022-12-15T09:53:36;25.48;;;9.23;;
75156;SDS011;63736;50.076;8.198;2022-12-15T09:56:04;23.85;;;10.50;;
75156;SDS011;63736;50.076;8.198;2022-12-15T10:07:38;24.17;;;9.57;;
75156;SDS011;63736;50.076;8.198;2022-12-15T10:12:38;23.92;;;9.85;;
75156;SDS011;63736;50.076;8.198;2022-12-15T10:20:16;21.97;;;9.53;;
75156;SDS011;63736;50.076;8.198;2022-12-15T10:22:47;28.90;;;11.45;;
75156;SDS011;63736;50.076;8.198;2022-12-15T10:31:05;35.92;;;13.07;;
75156;SDS011;63736;50.076;8.198;2022-12-15T10:33:35;32.47;;;12.53;;
75156;SDS011;63736;50.076;8.198;2022-12-15T10:36:07;29.08;;;11.95;;
75156;SDS011;63736;50.076;8.198;2022-12-15T10:38:36;28.95;;;11.93;;
75156;SDS011;63736;50.076;8.198;2022-12-15T10:41:10;31.27;;;11.85;;
75156;SDS011;63736;50.076;8.198;2022-12-15T10:43:39;28.30;;;11.70;;
75156;SDS011;63736;50.076;8.198;2022-12-15T10:48:54;35.83;;;13.48;;
75156;SDS011;63736;50.076;8.198;2022-12-15T10:51:44;24.88;;;10.13;;
75156;SDS011;63736;50.076;8.198;2022-12-15T10:54:14;28.67;;;10.57;;
75156;SDS011;63736;50.076;8.198;2022-12-15T10:56:49;20.30;;;7.43;;
75156;SDS011;63736;50.076;8.198;2022-12-15T11:01:46;24.15;;;9.23;;
75156;SDS011;63736;50.076;8.198;2022-12-15T11:06:57;26.20;;;10.10;;
75156;SDS011;63736;50.076;8.198;2022-12-15T11:09:41;32.25;;;12.07;;
75156;SDS011;63736;50.076;8.198;2022-12-15T11:12:27;20.65;;;7.95;;
75156;SDS011;63736;50.076;8.198;2022-12-15T11:17:45;28.95;;;10.43;;
75156;SDS011;63736;50.076;8.198;2022-12-15T11:20:20;21.63;;;8.97;;
75156;SDS011;63736;50.076;8.198;2022-12-15T11:22:52;27.92;;;9.95;;
75156;SDS011;63736;50.076;8.198;2022-12-15T11:25:32;27.55;;;9.80;;
75156;SDS011;63736;50.076;8.198;2022-12-15T11:28:03;30.08;;;10.95;;
75156;SDS011;63736;50.076;8.198;2022-12-15T11:30:41;26.17;;;10.65;;
75156;SDS011;63736;50.076;8.198;2022-12-15T11:33:11;27.73;;;10.63;;
75156;SDS011;63736;50.076;8.198;2022-12-15T11:38:22;27.73;;;11.25;;
75156;SDS011;63736;50.076;8.198;2022-12-15T11:40:49;26.43;;;10.90;;
75156;SDS011;63736;50.076;8.198;2022-12-15T11:43:27;17.83;;;7.45;;
75156;SDS011;63736;50.076;8.198;2022-12-15T11:48:41;30.17;;;12.15;;
75156;SDS011;63736;50.076;8.198;2022-12-15T11:51:43;32.65;;;11.88;;
75156;SDS011;63736;50.076;8.198;2022-12-15T11:54:26;29.03;;;11.80;;
75156;SDS011;63736;50.076;8.198;2022-12-15T12:26:39;27.15;;;10.30;;
75156;SDS011;63736;50.076;8.198;2022-12-15T12:29:14;26.73;;;10.27;;
75156;SDS011;63736;50.076;8.198;2022-12-15T12:34:27;26.17;;;10.55;;
75156;SDS011;63736;50.076;8.198;2022-12-15T12:37:03;28.47;;;11.50;;
75156;SDS011;63736;50.076;8.198;2022-12-15T12:39:40;18.80;;;7.63;;
75156;SDS011;63736;50.076;8.198;2022-12-15T12:42:09;22.45;;;9.55;;
75156;SDS011;63736;50.076;8.198;2022-12-15T12:44:40;27.73;;;11.65;;
75156;SDS011;63736;50.076;8.198;2022-12-15T12:47:08;26.07;;;10.50;;
75156;SDS011;63736;50.076;8.198;2022-12-15T12:49:44;31.83;;;12.77;;
75156;SDS011;63736;50.076;8.198;2022-12-15T12:52:23;29.20;;;12.20;;
75156;SDS011;63736;50.076;8.198;2022-12-15T12:54:58;27.35;;;11.38;;
75156;SDS011;63736;50.076;8.198;2022-12-15T12:57:37;29.80;;;12.48;;
75156;SDS011;63736;50.076;8.198;2022-12-15T13:07:52;27.73;;;11.57;;
75156;SDS011;63736;50.076;8.198;2022-12-15T13:10:20;30.13;;;12.73;;
75156;SDS011;63736;50.076;8.198;2022-12-15T13:12:58;29.33;;;12.30;;
75156;SDS011;63736;50.076;8.198;2022-12-15T13:15:40;30.00;;;12.45;;
75156;SDS011;63736;50.076;8.198;2022-12-15T13:18:13;34.30;;;13.07;;
75156;SDS011;63736;50.076;8.198;2022-12-15T13:20:41;29.50;;;11.73;;
75156;SDS011;63736;50.076;8.198;2022-12-15T13:31:42;32.40;;;13.23;;
75156;SDS011;63736;50.076;8.198;2022-12-15T13:39:00;30.08;;;12.23;;
75156;SDS011;63736;50.076;8.198;2022-12-15T13:41:28;27.60;;;11.02;;
75156;SDS011;63736;50.076;8.198;2022-12-15T13:43:53;33.73;;;13.60;;
75156;SDS011;63736;50.076;8.198;2022-12-15T13:46:23;27.60;;;11.32;;
75156;SDS011;63736;50.076;8.198;2022-12-15T13:49:03;31.40;;;10.95;;
75156;SDS011;63736;50.076;8.198;2022-12-15T13:51:34;27.08;;;11.20;;
75156;SDS011;63736;50.076;8.198;2022-12-15T13:54:20;26.33;;;10.27;;
75156;SDS011;63736;50.076;8.198;2022-12-15T13:56:51;20.65;;;8.15;;
75156;SDS011;63736;50.076;8.198;2022-12-15T14:01:57;26.83;;;12.07;;
75156;SDS011;63736;50.076;8.198;2022-12-15T14:04:23;24.98;;;10.68;;
75156;SDS011;63736;50.076;8.198;2022-12-15T14:06:57;21.33;;;9.60;;
75156;SDS011;63736;50.076;8.198;2022-12-15T14:09:27;22.70;;;9.60;;
75156;SDS011;63736;50.076;8.198;2022-12-15T14:11:56;28.58;;;11.90;;
75156;SDS011;63736;50.076;8.198;2022-12-15T14:14:26;21.87;;;9.50;;
75156;SDS011;63736;50.076;8.198;2022-12-15T14:16:58;20.30;;;7.93;;
75156;SDS011;63736;50.076;8.198;2022-12-15T14:19:40;31.23;;;12.55;;
75156;SDS011;63736;50.076;8.198;2022-12-15T14:22:17;32.63;;;12.35;;
75156;SDS011;63736;50.076;8.198;2022-12-15T14:24:47;29.27;;;11.50;;
75156;SDS011;63736;50.076;8.198;2022-12-15T14:27:23;32.93;;;12.50;;
75156;SDS011;63736;50.076;8.198;2022-12-15T14:30:07;49.20;;;27.85;;
75156;SDS011;63736;50.076;8.198;2022-12-15T14:32:55;32.70;;;14.68;;
75156;SDS011;63736;50.076;8.198;2022-12-15T14:37:54;32.60;;;12.57;;
75156;SDS011;63736;50.076;8.198;2022-12-15T14:40:21;31.95;;;12.60;;
75156;SDS011;63736;50.076;8.198;2022-12-15T14:42:48;23.05;;;8.73;;
75156;SDS011;63736;50.076;8.198;2022-12-15T14:45:18;24.77;;;10.27;;
75156;SDS011;63736;50.076;8.198;2022-12-15T14:47:51;24.73;;;11.40;;
75156;SDS011;63736;50.076;8.198;2022-12-15T14:50:20;33.05;;;14.07;;
75156;SDS011;63736;50.076;8.198;2022-12-15T14:52:50;23.98;;;10.07;;
75156;SDS011;63736;50.076;8.198;2022-12-15T14:57:55;34.47;;;16.83;;
75156;SDS011;63736;50.076;8.198;2022-12-15T15:06:00;37.92;;;17.15;;
75156;SDS011;63736;50.076;8.198;2022-12-15T15:08:30;25.17;;;10.63;;
75156;SDS011;63736;50.076;8.198;2022-12-15T15:11:11;20.05;;;8.98;;
75156;SDS011;63736;50.076;8.198;2022-12-15T15:14:04;21.55;;;9.18;;
75156;SDS011;63736;50.076;8.198;2022-12-15T15:16:35;29.15;;;9.25;;
75156;SDS011;63736;50.076;8.198;2022-12-15T15:19:01;28.60;;;11.77;;
75156;SDS011;63736;50.076;8.198;2022-12-15T15:21:28;32.47;;;13.48;;
75156;SDS011;63736;50.076;8.198;2022-12-15T15:23:58;22.67;;;9.25;;
75156;SDS011;63736;50.076;8.198;2022-12-15T15:26:44;22.23;;;8.35;;
75156;SDS011;63736;50.076;8.198;2022-12-15T15:34:43;58.13;;;35.95;;
75156;SDS011;63736;50.076;8.198;2022-12-15T15:37:21;20.30;;;9.37;;
75156;SDS011;63736;50.076;8.198;2022-12-15T15:39:49;25.52;;;11.00;;
75156;SDS011;63736;50.076;8.198;2022-12-15T15:42:15;28.05;;;12.77;;
75156;SDS011;63736;50.076;8.198;2022-12-15T15:44:40;17.27;;;7.00;;
75156;SDS011;63736;50.076;8.198;2022-12-15T15:47:24;25.55;;;9.98;;
75156;SDS011;63736;50.076;8.198;2022-12-15T15:49:59;30.85;;;11.73;;
75156;SDS011;63736;50.076;8.198;2022-12-15T15:52:24;28.63;;;10.45;;
75156;SDS011;63736;50.076;8.198;2022-12-15T15:54:58;20.10;;;9.73;;
75156;SDS011;63736;50.076;8.198;2022-12-15T15:57:23;21.50;;;11.77;;
75156;SDS011;63736;50.076;8.198;2022-12-15T15:59:52;22.80;;;13.40;;
75156;SDS011;63736;50.076;8.198;2022-12-15T16:02:17;28.33;;;12.17;;
75156;SDS011;63736;50.076;8.198;2022-12-15T16:04:43;27.07;;;9.70;;
75156;SDS011;63736;50.076;8.198;2022-12-15T16:09:51;16.23;;;6.27;;
75156;SDS011;63736;50.076;8.198;2022-12-15T16:12:24;21.27;;;7.75;;
75156;SDS011;63736;50.076;8.198;2022-12-15T16:14:53;29.95;;;11.55;;
75156;SDS011;63736;50.076;8.198;2022-12-15T16:17:19;34.70;;;12.02;;
75156;SDS011;63736;50.076;8.198;2022-12-15T16:19:45;34.88;;;14.60;;
75156;SDS011;63736;50.076;8.198;2022-12-15T16:22:17;37.07;;;15.07;;
75156;SDS011;63736;50.076;8.198;2022-12-15T16:24:44;30.13;;;11.10;;
75156;SDS011;63736;50.076;8.198;2022-12-15T16:27:10;19.67;;;7.80;;
75156;SDS011;63736;50.076;8.198;2022-12-15T16:29:37;22.83;;;10.57;;
75156;SDS011;63736;50.076;8.198;2022-12-15T16:32:07;23.00;;;13.03;;
75156;SDS011;63736;50.076;8.198;2022-12-15T16:34:35;21.08;;;11.75;;
75156;SDS011;63736;50.076;8.198;2022-12-15T16:37:01;16.13;;;10.17;;
75156;SDS011;63736;50.076;8.198;2022-12-15T16:39:29;19.88;;;8.77;;
75156;SDS011;63736;50.076;8.198;2022-12-15T16:41:56;25.60;;;9.30;;
75156;SDS011;63736;50.076;8.198;2022-12-15T16:44:22;17.15;;;7.38;;
75156;SDS011;63736;50.076;8.198;2022-12-15T16:46:49;29.02;;;13.75;;
75156;SDS011;63736;50.076;8.198;2022-12-15T16:49:15;22.30;;;9.10;;
75156;SDS011;63736;50.076;8.198;2022-12-15T16:51:41;21.47;;;9.57;;
75156;SDS011;63736;50.076;8.198;2022-12-15T16:54:13;22.20;;;11.68;;
75156;SDS011;63736;50.076;8.198;2022-12-15T16:56:41;26.63;;;14.65;;
75156;SDS011;63736;50.076;8.198;2022-12-15T16:59:09;25.43;;;16.50;;
75156;SDS011;63736;50.076;8.198;2022-12-15T17:01:39;26.55;;;17.77;;
75156;SDS011;63736;50.076;8.198;2022-12-15T17:04:05;26.30;;;18.83;;
75156;SDS011;63736;50.076;8.198;2022-12-15T17:06:30;35.28;;;22.80;;